Kahneeta, Oregon
Current Conditions -  °F | °C
As of 5:56 AM on Wednesday 28 Jan 2015 (Local Time) from KRDM Reporting Station
Clear Clear  
Wind Chill: 29°   Ceiling: Unl
Heat Index: 29°   Visibility: 10mi
Dew Point: 28°   Wind: 0mph
Humidity: 96%   Direction: NA
Pressure: 30.29"   Gusts: NA
Location:  44.7239°N, 121.498°W
Report Text: KRDM 281356Z 00000KT 10SM CLR M02/M02 A3029 RMK AO2 SLP268 T10171022
Loading
Personal Weather Stations






























Interactive Weather Map New forecast layout! Learn more

10-Day Weather Forecast

Advertisements
Track Severe Weather on mobile